Calhan, Colorado
Current Conditions -  °F | °C
As of 1:54 AM on Thursday 23 Oct 2014 (Local Time) from KFLY Reporting Station
Clear Clear  
Wind Chill: 41°   Ceiling: Unl
Heat Index: 41°   Visibility: 10mi
Dew Point: 39°   Wind: 0mph
Humidity: 91%   Direction: NA
Pressure: 30.23"   Gusts: NA
Location:  39.04°N, 104.3°W
Report Text: KFLY 230754Z AUTO 00000KT 10SM CLR 05/04 A3023 RMK AO2 T00510038
Loading
Personal Weather Stations






























Interactive Weather Map
Tropical Storm Tracking
New forecast layout! Learn more

10-Day Weather Forecast

Advertisements
Track Severe Weather on mobile